Nearby METAR Reports

 

KMTN - Baltimore/Martin, Maryland, USA
Distance from station: SSE 8mi, 13km
Updated: Thu, 03-Sep-2015 9:45pm EDT
NOT Current
Partly cloudy
Partly cloudy
 Wind from calm
Wind: Calm
Temperature: 79°F , 26°C
Dew Point: 75°F , 24°C
Humidity: 89%
Barometer: 29.90 inHg , 1012.5 hPa
Clouds: Partly cloudy
Visibility: 10 miles , 16 km
Cloud details: Partly cloudy 14000 ft
2015/09/04 01:45 KMTN 040145Z 00000KT 10SM SCT140 26/24 A2990 RMK LAST
KDMH - Baltimore/Dwntwn, Maryland, USA
Distance from station: SW 12mi, 19km
Updated: Fri, 04-Sep-2015 2:54am EDT

 
Temperature: 82°F , 28°C
Heat Index: 84°F , 29°C
Dew Point: 66°F , 19°C
Humidity: 58%
Barometer: 29.90 inHg , 1012.5 hPa
2015/09/04 06:54 KDMH 040654Z AUTO 28/19 A2990 RMK AO1 SLP125 T02780194
 
KBWI - Balto/Wash Intl, Maryland, USA
Distance from station: SSW 20mi, 33km
Updated: Fri, 04-Sep-2015 2:54am EDT
Mostly cloudy
Mostly cloudy
 Wind from calm
Wind: Calm
Temperature: 72°F , 22°C
Dew Point: 70°F , 21°C
Humidity: 94%
Barometer: 29.90 inHg , 1012.5 hPa
Clouds: Mostly cloudy
Visibility: 7 miles , 11 km
Cloud details: Mostly cloudy 25000 ft
2015/09/04 06:54 KBWI 040654Z 00000KT 7SM BKN250 22/21 A2990 RMK AO2 SLP122 T02220206
KDMW - Carroll Cnty, Maryland, USA
Distance from station: WNW 30mi, 48km
Updated: Fri, 04-Sep-2015 3:25am EDT
Clear
Clear
 Wind from calm
Wind: Calm
Temperature: 72°F , 22°C
Dew Point: 66°F , 19°C
Humidity: 83%
Barometer: 29.95 inHg , 1014.2 hPa
Clouds: Clear
Visibility: 10 miles , 16 km
2015/09/04 07:25 KDMW 040725Z AUTO 00000KT 10SM CLR 22/19 A2995 RMK AO2 LTG DSNT SE
 
KNAK - Annapolis/Naval, Maryland, USA
Distance from station: S 30mi, 48km
Updated: Fri, 04-Sep-2015 2:54am EDT
Haze, Clear
Haze, Clear
 Wind from calm
Wind: Calm
Temperature: 75°F , 24°C
Dew Point: 72°F , 22°C
Humidity: 89%
Barometer: 29.88 inHg , 1011.9 hPa
Summary: Haze
Clouds: Clear
Visibility: 6 miles , 10 km
2015/09/04 06:54 KNAK 040654Z AUTO 00000KT 6SM HZ CLR 24/22 A2988 RMK AO2 SLP120 T02440217
KW29 - Stevensville, Maryland, USA
Distance from station: SSE 31mi, 50km
Updated: Fri, 04-Sep-2015 3:27am EDT

 Wind from NNW
Wind: NNW 5 mph , 7 km/h
Temperature: 77°F , 25°C
Dew Point: 72°F , 22°C
Humidity: 83%
Barometer: 29.90 inHg , 1012.5 hPa
Visibility: 10 miles , 16 km
2015/09/04 07:27 KW29 040727Z AUTO 33004KT 10SM 25/22 A2990 RMK AO1
 
KCGS - College Park, Maryland, USA
Distance from station: SW 38mi, 61km
Updated: Fri, 04-Sep-2015 3:25am EDT
Clear
Clear
 Wind from calm
Wind: Calm
Temperature: 72°F , 22°C
Dew Point: 70°F , 21°C
Humidity: 94%
Barometer: 29.90 inHg , 1012.5 hPa
Clouds: Clear
Visibility: 7 miles , 11 km
2015/09/04 07:25 KCGS 040725Z AUTO 00000KT 7SM CLR 22/21 A2990 RMK AO1
KGAI - Gaithersburg, Maryland, USA
Distance from station: WSW 40mi, 65km
Updated: Fri, 04-Sep-2015 3:35am EDT
Clear
Clear
 Wind from calm
Wind: Calm
Temperature: 72°F , 22°C
Dew Point: 66°F , 19°C
Humidity: 83%
Barometer: 29.97 inHg , 1014.9 hPa
Clouds: Clear
Visibility: 7 miles , 11 km
2015/09/04 07:35 KGAI 040735Z AUTO 00000KT 7SM CLR 22/19 A2997 RMK AO1
 
KTHV - York, Pennsylvania, USA
Distance from station: NNW 40mi, 65km
Updated: Fri, 04-Sep-2015 2:53am EDT
Mist, Clear
Mist, Clear
 Wind from calm
Wind: Calm
Temperature: 66°F , 19°C
Dew Point: 64°F , 18°C
Humidity: 94%
Barometer: 29.93 inHg , 1013.5 hPa
Summary: Mist
Clouds: Clear
Visibility: 4 miles , 6 km
2015/09/04 06:53 KTHV 040653Z AUTO 00000KT 4SM BR CLR 19/18 A2993 RMK AO2 SLP134 T01890183
KFDK - Frederick, Maryland, USA
Distance from station: W 47mi, 75km
Updated: Fri, 04-Sep-2015 3:25am EDT
Fog, Mostly cloudy
Fog, Mostly cloudy
 Wind from calm
Wind: Calm
Temperature: 68°F , 20°C
Dew Point: 68°F , 20°C
Humidity: 100%
Barometer: 29.95 inHg , 1014.2 hPa
Summary: Fog
Clouds: Mostly cloudy
Visibility: 1/4 mile , 2 km
Cloud details: Mostly cloudy 500 ft
2015/09/04 07:25 KFDK 040725Z AUTO 00000KT 1/4SM FG BKN005 20/20 A2995 RMK AO2 LTG DSNT E
 
KESN - Easton/Newnam, Maryland, USA
Distance from station: SSE 48mi, 78km
Updated: Thu, 03-Sep-2015 6:55pm EDT
NOT Current
Clear
Clear
 Wind from calm
Wind: Calm
Temperature: 86°F , 30°C
Heat Index: 92°F , 33°C
Dew Point: 72°F , 22°C
Humidity: 62%
Barometer: 29.88 inHg , 1011.9 hPa
Clouds: Clear
Visibility: 10 miles , 16 km
2015/09/03 22:55 KESN 032255Z 00000KT 10SM SKC 30/22 A2988
KDCA - Washington/Natl, Washington D.c., USA
Distance from station: SW 49mi, 79km
Updated: Fri, 04-Sep-2015 2:52am EDT
Few Clouds
Few Clouds
 Wind from NW
Wind: NW 6 mph , 9 km/h
Temperature: 79°F , 26°C
Dew Point: 70°F , 21°C
Humidity: 74%
Barometer: 29.91 inHg , 1012.9 hPa
Clouds: Few Clouds
Visibility: 10 miles , 16 km
Cloud details: Few Clouds 25000 ft
2015/09/04 06:52 KDCA 040652Z 32005KT 10SM FEW250 26/21 A2991 RMK AO2 SLP128 T02560206
 
KLNS - Lancaster, Pennsylvania, USA
Distance from station: N 49mi, 79km
Updated: Fri, 04-Sep-2015 2:53am EDT
Clear
Clear
 Wind from calm
Wind: Calm
Temperature: 73°F , 23°C
Dew Point: 66°F , 19°C
Humidity: 78%
Barometer: 29.93 inHg , 1013.5 hPa
Clouds: Clear
Visibility: 7 miles , 11 km
2015/09/04 06:53 KLNS 040653Z AUTO 00000KT 7SM CLR 23/19 A2993 RMK AO2 SLP129 T02280189
KILG - Wilmington, Delaware, USA
Distance from station: ENE 50mi, 81km
Updated: Fri, 04-Sep-2015 2:51am EDT
Clear
Clear
 Wind from NNW
Wind: NNW 6 mph , 9 km/h
Temperature: 73°F , 23°C
Dew Point: 68°F , 20°C
Humidity: 83%
Barometer: 29.91 inHg , 1012.9 hPa
Clouds: Clear
Visibility: 8 miles , 13 km
2015/09/04 06:51 KILG 040651Z 34005KT 8SM CLR 23/20 A2991 RMK AO2 SLP125 T02280200 $